sensor_id;sensor_type;location;lat;lon;timestamp;P1;durP1;ratioP1;P2;durP2;ratioP2
57055;SDS011;42945;51.718;5.324;2023-08-20T00:01:07;13.52;;;3.35;;
57055;SDS011;42945;51.718;5.324;2023-08-20T00:03:37;11.40;;;2.83;;
57055;SDS011;42945;51.718;5.324;2023-08-20T00:06:04;10.95;;;3.17;;
57055;SDS011;42945;51.718;5.324;2023-08-20T00:08:30;11.73;;;3.03;;
57055;SDS011;42945;51.718;5.324;2023-08-20T00:10:55;11.55;;;3.00;;
57055;SDS011;42945;51.718;5.324;2023-08-20T00:13:20;9.93;;;3.00;;
57055;SDS011;42945;51.718;5.324;2023-08-20T00:15:46;9.15;;;2.90;;
57055;SDS011;42945;51.718;5.324;2023-08-20T00:18:11;10.38;;;2.97;;
57055;SDS011;42945;51.718;5.324;2023-08-20T00:20:37;12.05;;;2.95;;
57055;SDS011;42945;51.718;5.324;2023-08-20T00:23:03;10.65;;;2.58;;
57055;SDS011;42945;51.718;5.324;2023-08-20T00:25:29;10.70;;;2.97;;
57055;SDS011;42945;51.718;5.324;2023-08-20T00:27:55;12.43;;;2.95;;
57055;SDS011;42945;51.718;5.324;2023-08-20T00:30:20;15.93;;;3.17;;
57055;SDS011;42945;51.718;5.324;2023-08-20T00:32:45;11.05;;;3.10;;
57055;SDS011;42945;51.718;5.324;2023-08-20T00:35:11;8.65;;;2.53;;
57055;SDS011;42945;51.718;5.324;2023-08-20T00:37:36;8.50;;;2.80;;
57055;SDS011;42945;51.718;5.324;2023-08-20T00:40:02;8.00;;;2.97;;
57055;SDS011;42945;51.718;5.324;2023-08-20T00:42:30;13.48;;;3.10;;
57055;SDS011;42945;51.718;5.324;2023-08-20T00:44:55;10.52;;;2.63;;
57055;SDS011;42945;51.718;5.324;2023-08-20T00:47:20;12.77;;;3.13;;
57055;SDS011;42945;51.718;5.324;2023-08-20T00:49:47;12.27;;;2.72;;
57055;SDS011;42945;51.718;5.324;2023-08-20T00:52:16;6.90;;;2.65;;
57055;SDS011;42945;51.718;5.324;2023-08-20T00:54:44;11.05;;;2.40;;
57055;SDS011;42945;51.718;5.324;2023-08-20T00:57:13;10.00;;;3.03;;
57055;SDS011;42945;51.718;5.324;2023-08-20T00:59:40;13.50;;;3.05;;
57055;SDS011;42945;51.718;5.324;2023-08-20T01:02:05;11.85;;;2.75;;
57055;SDS011;42945;51.718;5.324;2023-08-20T01:04:31;11.07;;;2.85;;
57055;SDS011;42945;51.718;5.324;2023-08-20T01:12:19;11.25;;;2.90;;
57055;SDS011;42945;51.718;5.324;2023-08-20T01:14:45;10.05;;;2.83;;
57055;SDS011;42945;51.718;5.324;2023-08-20T01:17:10;8.65;;;2.30;;
57055;SDS011;42945;51.718;5.324;2023-08-20T01:19:36;7.65;;;2.38;;
57055;SDS011;42945;51.718;5.324;2023-08-20T01:24:55;10.10;;;2.42;;
57055;SDS011;42945;51.718;5.324;2023-08-20T01:30:23;11.60;;;2.40;;
57055;SDS011;42945;51.718;5.324;2023-08-20T01:32:50;11.38;;;2.90;;
57055;SDS011;42945;51.718;5.324;2023-08-20T01:35:17;9.77;;;2.22;;
57055;SDS011;42945;51.718;5.324;2023-08-20T01:37:43;12.13;;;2.40;;
57055;SDS011;42945;51.718;5.324;2023-08-20T01:40:09;12.45;;;2.33;;
57055;SDS011;42945;51.718;5.324;2023-08-20T01:42:38;9.15;;;2.53;;
57055;SDS011;42945;51.718;5.324;2023-08-20T01:45:05;9.75;;;2.22;;
57055;SDS011;42945;51.718;5.324;2023-08-20T01:47:31;11.07;;;2.20;;
57055;SDS011;42945;51.718;5.324;2023-08-20T01:49:57;10.05;;;2.60;;
57055;SDS011;42945;51.718;5.324;2023-08-20T01:52:22;7.93;;;2.47;;
57055;SDS011;42945;51.718;5.324;2023-08-20T01:54:48;11.70;;;2.58;;
57055;SDS011;42945;51.718;5.324;2023-08-20T01:57:13;10.38;;;2.08;;
57055;SDS011;42945;51.718;5.324;2023-08-20T01:59:38;10.30;;;2.47;;
57055;SDS011;42945;51.718;5.324;2023-08-20T02:02:04;9.90;;;2.53;;
57055;SDS011;42945;51.718;5.324;2023-08-20T02:04:31;12.27;;;2.50;;
57055;SDS011;42945;51.718;5.324;2023-08-20T02:06:56;10.75;;;2.10;;
57055;SDS011;42945;51.718;5.324;2023-08-20T02:09:21;10.25;;;2.00;;
57055;SDS011;42945;51.718;5.324;2023-08-20T02:11:47;9.43;;;2.22;;
57055;SDS011;42945;51.718;5.324;2023-08-20T02:14:12;9.00;;;2.30;;
57055;SDS011;42945;51.718;5.324;2023-08-20T02:16:37;9.82;;;2.28;;
57055;SDS011;42945;51.718;5.324;2023-08-20T02:19:03;8.15;;;2.28;;
57055;SDS011;42945;51.718;5.324;2023-08-20T02:21:30;7.95;;;2.42;;
57055;SDS011;42945;51.718;5.324;2023-08-20T02:23:56;7.85;;;2.30;;
57055;SDS011;42945;51.718;5.324;2023-08-20T02:26:21;8.52;;;2.50;;
57055;SDS011;42945;51.718;5.324;2023-08-20T02:28:47;10.35;;;2.30;;
57055;SDS011;42945;51.718;5.324;2023-08-20T02:31:13;11.55;;;2.10;;
57055;SDS011;42945;51.718;5.324;2023-08-20T02:33:38;10.73;;;2.80;;
57055;SDS011;42945;51.718;5.324;2023-08-20T02:36:03;10.27;;;2.45;;
57055;SDS011;42945;51.718;5.324;2023-08-20T02:38:29;10.27;;;2.25;;
57055;SDS011;42945;51.718;5.324;2023-08-20T02:40:55;11.63;;;2.95;;
57055;SDS011;42945;51.718;5.324;2023-08-20T02:43:21;10.20;;;2.42;;
57055;SDS011;42945;51.718;5.324;2023-08-20T02:45:46;13.85;;;2.95;;
57055;SDS011;42945;51.718;5.324;2023-08-20T02:48:12;10.68;;;2.67;;
57055;SDS011;42945;51.718;5.324;2023-08-20T02:50:38;8.40;;;2.65;;
57055;SDS011;42945;51.718;5.324;2023-08-20T02:53:03;14.77;;;2.70;;
57055;SDS011;42945;51.718;5.324;2023-08-20T02:55:29;9.82;;;2.33;;
57055;SDS011;42945;51.718;5.324;2023-08-20T02:57:56;10.75;;;2.55;;
57055;SDS011;42945;51.718;5.324;2023-08-20T03:00:21;12.82;;;2.65;;
57055;SDS011;42945;51.718;5.324;2023-08-20T03:02:47;14.98;;;3.40;;
57055;SDS011;42945;51.718;5.324;2023-08-20T03:05:12;12.73;;;2.95;;
57055;SDS011;42945;51.718;5.324;2023-08-20T03:07:40;11.55;;;3.40;;
57055;SDS011;42945;51.718;5.324;2023-08-20T03:10:06;11.73;;;3.70;;
57055;SDS011;42945;51.718;5.324;2023-08-20T03:12:31;13.27;;;3.00;;
57055;SDS011;42945;51.718;5.324;2023-08-20T03:14:57;11.57;;;2.83;;
57055;SDS011;42945;51.718;5.324;2023-08-20T03:17:23;13.23;;;3.20;;
57055;SDS011;42945;51.718;5.324;2023-08-20T03:19:55;14.13;;;3.30;;
57055;SDS011;42945;51.718;5.324;2023-08-20T03:22:22;9.32;;;2.92;;
57055;SDS011;42945;51.718;5.324;2023-08-20T03:24:48;14.02;;;3.15;;
57055;SDS011;42945;51.718;5.324;2023-08-20T03:27:13;9.50;;;3.25;;
57055;SDS011;42945;51.718;5.324;2023-08-20T03:29:39;10.00;;;3.10;;
57055;SDS011;42945;51.718;5.324;2023-08-20T03:32:04;15.35;;;3.22;;
57055;SDS011;42945;51.718;5.324;2023-08-20T03:34:30;13.20;;;3.17;;
57055;SDS011;42945;51.718;5.324;2023-08-20T03:36:55;17.95;;;3.80;;
57055;SDS011;42945;51.718;5.324;2023-08-20T03:39:20;12.05;;;3.60;;
57055;SDS011;42945;51.718;5.324;2023-08-20T03:41:46;12.85;;;3.40;;
57055;SDS011;42945;51.718;5.324;2023-08-20T03:44:11;14.30;;;3.40;;
57055;SDS011;42945;51.718;5.324;2023-08-20T03:46:36;14.55;;;4.00;;
57055;SDS011;42945;51.718;5.324;2023-08-20T03:49:02;9.45;;;3.47;;
57055;SDS011;42945;51.718;5.324;2023-08-20T03:51:27;15.27;;;4.03;;
57055;SDS011;42945;51.718;5.324;2023-08-20T03:53:53;13.90;;;3.50;;
57055;SDS011;42945;51.718;5.324;2023-08-20T03:56:18;12.20;;;3.65;;
57055;SDS011;42945;51.718;5.324;2023-08-20T03:58:43;13.07;;;3.80;;
57055;SDS011;42945;51.718;5.324;2023-08-20T04:01:09;8.40;;;4.10;;
57055;SDS011;42945;51.718;5.324;2023-08-20T04:03:34;15.10;;;3.72;;
57055;SDS011;42945;51.718;5.324;2023-08-20T04:05:59;12.57;;;4.05;;
57055;SDS011;42945;51.718;5.324;2023-08-20T04:08:24;12.70;;;4.13;;
57055;SDS011;42945;51.718;5.324;2023-08-20T04:10:51;13.13;;;3.88;;
57055;SDS011;42945;51.718;5.324;2023-08-20T04:13:17;16.55;;;4.28;;
57055;SDS011;42945;51.718;5.324;2023-08-20T04:15:42;12.98;;;3.70;;
57055;SDS011;42945;51.718;5.324;2023-08-20T04:18:08;14.75;;;3.95;;
57055;SDS011;42945;51.718;5.324;2023-08-20T04:20:33;15.30;;;3.85;;
57055;SDS011;42945;51.718;5.324;2023-08-20T04:22:59;11.68;;;3.80;;
57055;SDS011;42945;51.718;5.324;2023-08-20T04:25:24;13.68;;;3.95;;
57055;SDS011;42945;51.718;5.324;2023-08-20T04:27:49;14.70;;;4.07;;
57055;SDS011;42945;51.718;5.324;2023-08-20T04:30:15;17.13;;;4.55;;
57055;SDS011;42945;51.718;5.324;2023-08-20T04:32:40;15.15;;;4.18;;
57055;SDS011;42945;51.718;5.324;2023-08-20T04:35:06;10.25;;;3.78;;
57055;SDS011;42945;51.718;5.324;2023-08-20T04:37:31;13.02;;;4.00;;
57055;SDS011;42945;51.718;5.324;2023-08-20T04:39:57;13.27;;;3.60;;
57055;SDS011;42945;51.718;5.324;2023-08-20T04:42:22;13.40;;;4.00;;
57055;SDS011;42945;51.718;5.324;2023-08-20T04:44:48;12.85;;;3.58;;
57055;SDS011;42945;51.718;5.324;2023-08-20T04:47:14;12.05;;;3.78;;
57055;SDS011;42945;51.718;5.324;2023-08-20T04:49:39;11.23;;;3.78;;
57055;SDS011;42945;51.718;5.324;2023-08-20T04:52:05;12.93;;;4.03;;
57055;SDS011;42945;51.718;5.324;2023-08-20T04:54:30;10.45;;;3.85;;
57055;SDS011;42945;51.718;5.324;2023-08-20T04:56:56;13.10;;;3.70;;
57055;SDS011;42945;51.718;5.324;2023-08-20T04:59:22;13.35;;;4.32;;
57055;SDS011;42945;51.718;5.324;2023-08-20T05:01:47;14.05;;;4.05;;
57055;SDS011;42945;51.718;5.324;2023-08-20T05:04:12;14.10;;;4.00;;
57055;SDS011;42945;51.718;5.324;2023-08-20T05:06:38;16.17;;;3.78;;
57055;SDS011;42945;51.718;5.324;2023-08-20T05:09:03;10.57;;;3.97;;
57055;SDS011;42945;51.718;5.324;2023-08-20T05:11:29;13.13;;;3.90;;
57055;SDS011;42945;51.718;5.324;2023-08-20T05:13:56;13.05;;;3.55;;
57055;SDS011;42945;51.718;5.324;2023-08-20T05:16:21;10.73;;;4.22;;
57055;SDS011;42945;51.718;5.324;2023-08-20T05:18:47;10.38;;;3.90;;
57055;SDS011;42945;51.718;5.324;2023-08-20T05:21:12;10.68;;;3.78;;
57055;SDS011;42945;51.718;5.324;2023-08-20T05:23:38;18.15;;;4.07;;
57055;SDS011;42945;51.718;5.324;2023-08-20T05:26:05;13.80;;;3.72;;
57055;SDS011;42945;51.718;5.324;2023-08-20T05:28:30;12.25;;;3.90;;
57055;SDS011;42945;51.718;5.324;2023-08-20T05:30:56;11.93;;;4.30;;
57055;SDS011;42945;51.718;5.324;2023-08-20T05:33:23;12.85;;;4.03;;
57055;SDS011;42945;51.718;5.324;2023-08-20T05:35:49;14.35;;;4.10;;
57055;SDS011;42945;51.718;5.324;2023-08-20T05:38:14;14.55;;;5.38;;
57055;SDS011;42945;51.718;5.324;2023-08-20T05:40:39;10.57;;;4.60;;
57055;SDS011;42945;51.718;5.324;2023-08-20T05:43:05;16.25;;;5.35;;
57055;SDS011;42945;51.718;5.324;2023-08-20T05:45:30;15.10;;;5.40;;
57055;SDS011;42945;51.718;5.324;2023-08-20T05:47:55;16.65;;;5.25;;
57055;SDS011;42945;51.718;5.324;2023-08-20T05:50:21;16.48;;;5.78;;
57055;SDS011;42945;51.718;5.324;2023-08-20T05:52:46;14.95;;;5.72;;
57055;SDS011;42945;51.718;5.324;2023-08-20T05:55:11;13.93;;;5.65;;
57055;SDS011;42945;51.718;5.324;2023-08-20T05:57:37;17.27;;;6.25;;
57055;SDS011;42945;51.718;5.324;2023-08-20T06:00:03;12.80;;;5.57;;
57055;SDS011;42945;51.718;5.324;2023-08-20T06:02:29;15.93;;;6.15;;
57055;SDS011;42945;51.718;5.324;2023-08-20T06:04:55;16.05;;;5.63;;
57055;SDS011;42945;51.718;5.324;2023-08-20T06:07:20;16.10;;;5.55;;
57055;SDS011;42945;51.718;5.324;2023-08-20T06:09:46;15.52;;;5.30;;
57055;SDS011;42945;51.718;5.324;2023-08-20T06:12:11;16.10;;;5.25;;
57055;SDS011;42945;51.718;5.324;2023-08-20T06:14:37;16.85;;;5.13;;
57055;SDS011;42945;51.718;5.324;2023-08-20T06:17:02;18.95;;;4.82;;
57055;SDS011;42945;51.718;5.324;2023-08-20T06:19:27;14.38;;;4.85;;
57055;SDS011;42945;51.718;5.324;2023-08-20T06:21:54;15.98;;;5.45;;
57055;SDS011;42945;51.718;5.324;2023-08-20T06:24:19;18.95;;;5.47;;
57055;SDS011;42945;51.718;5.324;2023-08-20T06:26:44;14.98;;;4.53;;
57055;SDS011;42945;51.718;5.324;2023-08-20T06:29:10;16.55;;;4.55;;
57055;SDS011;42945;51.718;5.324;2023-08-20T06:31:35;12.23;;;4.07;;
57055;SDS011;42945;51.718;5.324;2023-08-20T06:34:04;14.10;;;4.05;;
57055;SDS011;42945;51.718;5.324;2023-08-20T06:36:29;12.02;;;3.55;;
57055;SDS011;42945;51.718;5.324;2023-08-20T06:38:54;14.80;;;4.13;;
57055;SDS011;42945;51.718;5.324;2023-08-20T06:41:20;12.15;;;3.95;;
57055;SDS011;42945;51.718;5.324;2023-08-20T06:43:45;10.73;;;3.03;;
57055;SDS011;42945;51.718;5.324;2023-08-20T06:46:11;11.68;;;3.58;;
57055;SDS011;42945;51.718;5.324;2023-08-20T06:48:36;9.80;;;2.50;;
57055;SDS011;42945;51.718;5.324;2023-08-20T06:51:10;9.88;;;2.60;;
57055;SDS011;42945;51.718;5.324;2023-08-20T06:53:43;9.98;;;2.90;;
57055;SDS011;42945;51.718;5.324;2023-08-20T06:56:09;12.63;;;2.90;;
57055;SDS011;42945;51.718;5.324;2023-08-20T06:58:35;10.93;;;2.75;;
57055;SDS011;42945;51.718;5.324;2023-08-20T07:01:01;8.02;;;2.30;;
57055;SDS011;42945;51.718;5.324;2023-08-20T07:03:34;10.27;;;2.80;;
57055;SDS011;42945;51.718;5.324;2023-08-20T07:06:06;11.35;;;2.80;;
57055;SDS011;42945;51.718;5.324;2023-08-20T07:08:34;13.80;;;2.75;;
57055;SDS011;42945;51.718;5.324;2023-08-20T07:11:01;10.05;;;2.90;;
57055;SDS011;42945;51.718;5.324;2023-08-20T07:13:27;10.88;;;2.85;;
57055;SDS011;42945;51.718;5.324;2023-08-20T07:15:52;8.68;;;2.70;;
57055;SDS011;42945;51.718;5.324;2023-08-20T07:18:17;9.30;;;2.22;;
57055;SDS011;42945;51.718;5.324;2023-08-20T07:20:44;9.57;;;2.50;;
57055;SDS011;42945;51.718;5.324;2023-08-20T07:23:09;10.48;;;2.30;;
57055;SDS011;42945;51.718;5.324;2023-08-20T07:25:39;8.55;;;1.90;;
57055;SDS011;42945;51.718;5.324;2023-08-20T07:28:06;9.55;;;1.92;;
57055;SDS011;42945;51.718;5.324;2023-08-20T07:30:32;7.68;;;1.92;;
57055;SDS011;42945;51.718;5.324;2023-08-20T07:32:57;6.95;;;2.00;;
57055;SDS011;42945;51.718;5.324;2023-08-20T07:35:23;11.63;;;1.75;;
57055;SDS011;42945;51.718;5.324;2023-08-20T07:37:49;10.00;;;2.20;;
57055;SDS011;42945;51.718;5.324;2023-08-20T07:40:14;7.55;;;1.98;;
57055;SDS011;42945;51.718;5.324;2023-08-20T07:42:40;10.35;;;1.75;;
57055;SDS011;42945;51.718;5.324;2023-08-20T07:45:06;12.30;;;2.00;;
57055;SDS011;42945;51.718;5.324;2023-08-20T07:47:32;11.15;;;2.42;;
57055;SDS011;42945;51.718;5.324;2023-08-20T07:49:58;10.55;;;2.70;;
57055;SDS011;42945;51.718;5.324;2023-08-20T07:52:23;7.82;;;1.80;;
57055;SDS011;42945;51.718;5.324;2023-08-20T07:54:49;11.60;;;2.38;;
57055;SDS011;42945;51.718;5.324;2023-08-20T07:57:14;14.25;;;2.22;;
57055;SDS011;42945;51.718;5.324;2023-08-20T07:59:40;8.43;;;2.33;;
57055;SDS011;42945;51.718;5.324;2023-08-20T08:02:06;12.52;;;1.63;;
57055;SDS011;42945;51.718;5.324;2023-08-20T08:04:31;7.03;;;1.65;;
57055;SDS011;42945;51.718;5.324;2023-08-20T08:06:56;5.97;;;1.73;;
57055;SDS011;42945;51.718;5.324;2023-08-20T08:09:26;10.18;;;1.92;;
57055;SDS011;42945;51.718;5.324;2023-08-20T08:11:53;9.87;;;1.20;;
57055;SDS011;42945;51.718;5.324;2023-08-20T08:14:19;5.78;;;1.45;;
57055;SDS011;42945;51.718;5.324;2023-08-20T08:16:45;4.80;;;0.93;;
57055;SDS011;42945;51.718;5.324;2023-08-20T08:19:11;3.70;;;0.73;;
57055;SDS011;42945;51.718;5.324;2023-08-20T08:21:36;3.55;;;0.80;;
57055;SDS011;42945;51.718;5.324;2023-08-20T08:24:02;4.25;;;1.00;;
57055;SDS011;42945;51.718;5.324;2023-08-20T08:26:28;5.22;;;0.60;;
57055;SDS011;42945;51.718;5.324;2023-08-20T08:28:53;4.28;;;1.08;;
57055;SDS011;42945;51.718;5.324;2023-08-20T08:31:19;4.07;;;0.70;;
57055;SDS011;42945;51.718;5.324;2023-08-20T08:33:44;5.35;;;0.90;;
57055;SDS011;42945;51.718;5.324;2023-08-20T08:36:10;3.60;;;0.80;;
57055;SDS011;42945;51.718;5.324;2023-08-20T08:38:36;4.55;;;0.82;;
57055;SDS011;42945;51.718;5.324;2023-08-20T08:41:02;4.75;;;0.60;;
57055;SDS011;42945;51.718;5.324;2023-08-20T08:43:29;4.13;;;0.75;;
57055;SDS011;42945;51.718;5.324;2023-08-20T08:45:56;4.78;;;1.00;;
57055;SDS011;42945;51.718;5.324;2023-08-20T08:48:22;6.45;;;0.80;;
57055;SDS011;42945;51.718;5.324;2023-08-20T08:50:49;3.85;;;0.80;;
57055;SDS011;42945;51.718;5.324;2023-08-20T08:53:16;5.53;;;0.77;;
57055;SDS011;42945;51.718;5.324;2023-08-20T08:55:42;3.58;;;0.98;;
57055;SDS011;42945;51.718;5.324;2023-08-20T08:58:07;2.72;;;0.60;;
57055;SDS011;42945;51.718;5.324;2023-08-20T09:00:33;4.93;;;0.70;;
57055;SDS011;42945;51.718;5.324;2023-08-20T09:02:58;4.72;;;0.70;;
57055;SDS011;42945;51.718;5.324;2023-08-20T09:05:24;4.18;;;0.63;;
57055;SDS011;42945;51.718;5.324;2023-08-20T09:07:54;2.72;;;0.60;;
57055;SDS011;42945;51.718;5.324;2023-08-20T09:10:22;5.03;;;0.57;;
57055;SDS011;42945;51.718;5.324;2023-08-20T09:12:47;3.83;;;0.82;;
57055;SDS011;42945;51.718;5.324;2023-08-20T09:15:13;4.60;;;0.80;;
57055;SDS011;42945;51.718;5.324;2023-08-20T09:17:40;5.32;;;0.57;;
57055;SDS011;42945;51.718;5.324;2023-08-20T09:20:07;4.32;;;0.65;;
57055;SDS011;42945;51.718;5.324;2023-08-20T09:22:33;2.15;;;0.40;;
57055;SDS011;42945;51.718;5.324;2023-08-20T09:25:01;2.95;;;0.70;;
57055;SDS011;42945;51.718;5.324;2023-08-20T09:27:27;4.50;;;0.50;;
57055;SDS011;42945;51.718;5.324;2023-08-20T09:29:54;5.97;;;0.52;;
57055;SDS011;42945;51.718;5.324;2023-08-20T09:32:21;4.88;;;0.47;;
57055;SDS011;42945;51.718;5.324;2023-08-20T09:34:51;2.00;;;0.47;;
57055;SDS011;42945;51.718;5.324;2023-08-20T09:37:19;3.97;;;0.73;;
57055;SDS011;42945;51.718;5.324;2023-08-20T09:39:46;4.35;;;0.63;;
57055;SDS011;42945;51.718;5.324;2023-08-20T09:42:12;2.35;;;0.63;;
57055;SDS011;42945;51.718;5.324;2023-08-20T09:44:38;2.15;;;0.50;;
57055;SDS011;42945;51.718;5.324;2023-08-20T09:47:08;4.25;;;0.93;;
57055;SDS011;42945;51.718;5.324;2023-08-20T09:49:38;4.22;;;1.23;;
57055;SDS011;42945;51.718;5.324;2023-08-20T09:52:06;4.32;;;0.65;;
57055;SDS011;42945;51.718;5.324;2023-08-20T09:57:33;4.93;;;0.77;;
57055;SDS011;42945;51.718;5.324;2023-08-20T10:00:00;5.25;;;0.73;;
57055;SDS011;42945;51.718;5.324;2023-08-20T10:02:28;3.58;;;0.60;;
57055;SDS011;42945;51.718;5.324;2023-08-20T10:04:54;5.07;;;0.77;;
57055;SDS011;42945;51.718;5.324;2023-08-20T10:07:20;5.20;;;0.50;;
57055;SDS011;42945;51.718;5.324;2023-08-20T10:09:49;2.22;;;0.65;;
57055;SDS011;42945;51.718;5.324;2023-08-20T10:12:16;3.03;;;0.40;;
57055;SDS011;42945;51.718;5.324;2023-08-20T10:14:42;3.50;;;0.70;;
57055;SDS011;42945;51.718;5.324;2023-08-20T10:17:08;4.10;;;0.85;;
57055;SDS011;42945;51.718;5.324;2023-08-20T10:19:39;4.20;;;0.57;;
57055;SDS011;42945;51.718;5.324;2023-08-20T10:24:41;5.15;;;0.80;;
57055;SDS011;42945;51.718;5.324;2023-08-20T10:27:22;4.95;;;0.70;;
57055;SDS011;42945;51.718;5.324;2023-08-20T10:29:50;2.60;;;0.80;;
57055;SDS011;42945;51.718;5.324;2023-08-20T10:32:18;6.35;;;0.93;;
57055;SDS011;42945;51.718;5.324;2023-08-20T10:34:47;3.20;;;0.73;;
57055;SDS011;42945;51.718;5.324;2023-08-20T10:37:20;3.35;;;0.80;;
57055;SDS011;42945;51.718;5.324;2023-08-20T10:39:53;3.47;;;0.77;;
57055;SDS011;42945;51.718;5.324;2023-08-20T10:50:16;3.95;;;1.10;;
57055;SDS011;42945;51.718;5.324;2023-08-20T10:52:49;3.13;;;0.80;;
57055;SDS011;42945;51.718;5.324;2023-08-20T10:55:22;3.40;;;0.50;;
57055;SDS011;42945;51.718;5.324;2023-08-20T10:57:54;3.08;;;0.50;;
57055;SDS011;42945;51.718;5.324;2023-08-20T11:00:24;3.28;;;0.77;;
57055;SDS011;42945;51.718;5.324;2023-08-20T11:02:50;5.95;;;0.90;;
57055;SDS011;42945;51.718;5.324;2023-08-20T11:05:17;5.78;;;0.98;;
57055;SDS011;42945;51.718;5.324;2023-08-20T11:07:48;4.72;;;0.77;;
57055;SDS011;42945;51.718;5.324;2023-08-20T11:10:14;5.55;;;0.82;;
57055;SDS011;42945;51.718;5.324;2023-08-20T11:12:44;2.78;;;0.50;;
57055;SDS011;42945;51.718;5.324;2023-08-20T11:15:11;3.33;;;0.63;;
57055;SDS011;42945;51.718;5.324;2023-08-20T11:17:46;2.92;;;0.57;;
57055;SDS011;42945;51.718;5.324;2023-08-20T11:20:15;2.65;;;0.45;;
57055;SDS011;42945;51.718;5.324;2023-08-20T11:22:41;4.60;;;0.60;;
57055;SDS011;42945;51.718;5.324;2023-08-20T11:25:12;7.30;;;0.80;;
57055;SDS011;42945;51.718;5.324;2023-08-20T11:30:07;2.78;;;0.60;;
57055;SDS011;42945;51.718;5.324;2023-08-20T11:32:37;4.43;;;0.70;;
57055;SDS011;42945;51.718;5.324;2023-08-20T11:35:03;6.32;;;0.73;;
57055;SDS011;42945;51.718;5.324;2023-08-20T11:37:29;7.22;;;0.80;;
57055;SDS011;42945;51.718;5.324;2023-08-20T11:39:54;5.00;;;0.70;;
57055;SDS011;42945;51.718;5.324;2023-08-20T11:42:20;4.63;;;0.90;;
57055;SDS011;42945;51.718;5.324;2023-08-20T11:44:46;3.60;;;0.70;;
57055;SDS011;42945;51.718;5.324;2023-08-20T11:47:18;4.07;;;0.55;;
57055;SDS011;42945;51.718;5.324;2023-08-20T11:49:44;3.60;;;0.60;;
57055;SDS011;42945;51.718;5.324;2023-08-20T11:52:09;4.07;;;0.50;;
57055;SDS011;42945;51.718;5.324;2023-08-20T11:54:35;4.50;;;1.67;;
57055;SDS011;42945;51.718;5.324;2023-08-20T11:57:02;8.95;;;1.00;;
57055;SDS011;42945;51.718;5.324;2023-08-20T11:59:29;4.40;;;0.80;;
57055;SDS011;42945;51.718;5.324;2023-08-20T12:01:56;5.55;;;0.77;;
57055;SDS011;42945;51.718;5.324;2023-08-20T12:04:26;3.92;;;0.60;;
57055;SDS011;42945;51.718;5.324;2023-08-20T12:07:03;3.35;;;0.60;;
57055;SDS011;42945;51.718;5.324;2023-08-20T12:09:48;4.88;;;0.60;;
57055;SDS011;42945;51.718;5.324;2023-08-20T12:12:14;2.55;;;0.52;;
57055;SDS011;42945;51.718;5.324;2023-08-20T12:14:39;4.00;;;0.70;;
57055;SDS011;42945;51.718;5.324;2023-08-20T12:17:07;4.97;;;0.80;;
57055;SDS011;42945;51.718;5.324;2023-08-20T12:19:32;5.50;;;0.90;;
57055;SDS011;42945;51.718;5.324;2023-08-20T12:21:59;3.47;;;0.60;;
57055;SDS011;42945;51.718;5.324;2023-08-20T12:24:28;3.65;;;0.73;;
57055;SDS011;42945;51.718;5.324;2023-08-20T12:26:53;3.78;;;0.70;;
57055;SDS011;42945;51.718;5.324;2023-08-20T12:29:19;3.53;;;0.60;;
57055;SDS011;42945;51.718;5.324;2023-08-20T12:31:45;9.13;;;0.90;;
57055;SDS011;42945;51.718;5.324;2023-08-20T12:34:10;4.63;;;0.60;;
57055;SDS011;42945;51.718;5.324;2023-08-20T12:36:36;5.47;;;0.82;;
57055;SDS011;42945;51.718;5.324;2023-08-20T12:39:02;6.57;;;0.88;;
57055;SDS011;42945;51.718;5.324;2023-08-20T12:41:29;5.28;;;1.25;;
57055;SDS011;42945;51.718;5.324;2023-08-20T12:43:54;3.38;;;0.77;;
57055;SDS011;42945;51.718;5.324;2023-08-20T12:46:19;3.33;;;0.80;;
57055;SDS011;42945;51.718;5.324;2023-08-20T12:48:45;4.05;;;0.70;;
57055;SDS011;42945;51.718;5.324;2023-08-20T12:51:11;6.65;;;0.93;;
57055;SDS011;42945;51.718;5.324;2023-08-20T12:53:38;4.72;;;0.82;;
57055;SDS011;42945;51.718;5.324;2023-08-20T12:56:04;6.90;;;0.80;;
57055;SDS011;42945;51.718;5.324;2023-08-20T12:58:29;7.07;;;0.80;;
57055;SDS011;42945;51.718;5.324;2023-08-20T13:00:55;7.70;;;1.00;;
57055;SDS011;42945;51.718;5.324;2023-08-20T13:03:20;3.75;;;0.73;;
57055;SDS011;42945;51.718;5.324;2023-08-20T13:05:46;10.32;;;0.90;;
57055;SDS011;42945;51.718;5.324;2023-08-20T13:08:11;4.88;;;0.90;;
57055;SDS011;42945;51.718;5.324;2023-08-20T13:10:40;4.13;;;0.85;;
57055;SDS011;42945;51.718;5.324;2023-08-20T13:13:05;3.90;;;0.70;;
57055;SDS011;42945;51.718;5.324;2023-08-20T13:15:35;2.88;;;0.60;;
57055;SDS011;42945;51.718;5.324;2023-08-20T13:18:00;4.43;;;0.98;;
57055;SDS011;42945;51.718;5.324;2023-08-20T13:20:26;5.10;;;1.02;;
57055;SDS011;42945;51.718;5.324;2023-08-20T13:22:52;4.85;;;1.00;;
57055;SDS011;42945;51.718;5.324;2023-08-20T13:25:18;3.22;;;0.80;;
57055;SDS011;42945;51.718;5.324;2023-08-20T13:27:43;3.75;;;0.70;;
57055;SDS011;42945;51.718;5.324;2023-08-20T13:30:09;7.53;;;0.98;;
57055;SDS011;42945;51.718;5.324;2023-08-20T13:32:35;4.93;;;0.98;;
57055;SDS011;42945;51.718;5.324;2023-08-20T13:35:02;3.30;;;0.70;;
57055;SDS011;42945;51.718;5.324;2023-08-20T13:37:35;3.90;;;0.88;;
57055;SDS011;42945;51.718;5.324;2023-08-20T13:40:03;3.80;;;0.75;;
57055;SDS011;42945;51.718;5.324;2023-08-20T13:42:30;6.80;;;0.90;;
57055;SDS011;42945;51.718;5.324;2023-08-20T13:44:55;3.60;;;0.60;;
57055;SDS011;42945;51.718;5.324;2023-08-20T13:47:20;4.85;;;0.75;;
57055;SDS011;42945;51.718;5.324;2023-08-20T13:49:46;4.00;;;0.90;;
57055;SDS011;42945;51.718;5.324;2023-08-20T13:52:11;3.03;;;0.80;;
57055;SDS011;42945;51.718;5.324;2023-08-20T13:54:36;6.55;;;1.10;;
57055;SDS011;42945;51.718;5.324;2023-08-20T13:57:02;4.13;;;0.98;;
57055;SDS011;42945;51.718;5.324;2023-08-20T13:59:28;6.70;;;0.95;;
57055;SDS011;42945;51.718;5.324;2023-08-20T14:01:54;5.65;;;0.70;;
57055;SDS011;42945;51.718;5.324;2023-08-20T14:04:20;6.95;;;1.02;;
57055;SDS011;42945;51.718;5.324;2023-08-20T14:06:45;4.85;;;0.88;;
57055;SDS011;42945;51.718;5.324;2023-08-20T14:09:10;2.53;;;0.90;;
57055;SDS011;42945;51.718;5.324;2023-08-20T14:11:36;2.13;;;0.60;;
57055;SDS011;42945;51.718;5.324;2023-08-20T14:14:01;4.20;;;0.65;;
57055;SDS011;42945;51.718;5.324;2023-08-20T14:16:27;3.47;;;0.70;;
57055;SDS011;42945;51.718;5.324;2023-08-20T14:18:53;4.50;;;1.00;;
57055;SDS011;42945;51.718;5.324;2023-08-20T14:21:18;2.67;;;0.80;;
57055;SDS011;42945;51.718;5.324;2023-08-20T14:23:43;5.45;;;0.88;;
57055;SDS011;42945;51.718;5.324;2023-08-20T14:26:09;4.10;;;0.70;;
57055;SDS011;42945;51.718;5.324;2023-08-20T14:28:34;6.85;;;1.20;;
57055;SDS011;42945;51.718;5.324;2023-08-20T14:31:03;5.43;;;0.85;;
57055;SDS011;42945;51.718;5.324;2023-08-20T14:33:29;7.40;;;0.98;;
57055;SDS011;42945;51.718;5.324;2023-08-20T14:35:57;4.28;;;0.60;;
57055;SDS011;42945;51.718;5.324;2023-08-20T14:38:23;6.20;;;0.80;;
57055;SDS011;42945;51.718;5.324;2023-08-20T14:40:49;5.70;;;0.75;;
57055;SDS011;42945;51.718;5.324;2023-08-20T14:43:14;3.58;;;0.60;;
57055;SDS011;42945;51.718;5.324;2023-08-20T14:45:39;6.88;;;1.05;;
57055;SDS011;42945;51.718;5.324;2023-08-20T14:48:05;5.07;;;0.68;;
57055;SDS011;42945;51.718;5.324;2023-08-20T14:50:30;5.32;;;1.05;;
57055;SDS011;42945;51.718;5.324;2023-08-20T14:52:56;5.53;;;0.88;;
57055;SDS011;42945;51.718;5.324;2023-08-20T14:55:22;4.45;;;0.60;;
57055;SDS011;42945;51.718;5.324;2023-08-20T14:57:47;4.43;;;0.70;;
57055;SDS011;42945;51.718;5.324;2023-08-20T15:00:13;5.95;;;0.85;;
57055;SDS011;42945;51.718;5.324;2023-08-20T15:02:40;4.22;;;0.63;;
57055;SDS011;42945;51.718;5.324;2023-08-20T15:05:05;5.15;;;0.82;;